createdAt,value
2022-09-01T00:00:29.037Z,23.13
2022-09-01T00:03:00.883Z,24.00
2022-09-01T00:05:33.128Z,26.00
2022-09-01T00:08:05.474Z,25.60
2022-09-01T00:10:37.641Z,30.10
2022-09-01T00:13:09.497Z,29.47
2022-09-01T00:15:41.412Z,28.50
2022-09-01T00:18:13.713Z,27.70
2022-09-01T00:20:45.429Z,28.90
2022-09-01T00:23:17.169Z,29.70
2022-09-01T00:25:49.005Z,29.40
2022-09-01T00:28:21.139Z,34.47
2022-09-01T00:30:59.287Z,32.40
2022-09-01T00:33:31.071Z,32.30
2022-09-01T00:36:03.201Z,30.37
2022-09-01T00:38:35.549Z,29.60
2022-09-01T00:41:08.119Z,27.77
2022-09-01T00:43:46.758Z,31.47
2022-09-01T00:46:25.071Z,26.23
2022-09-01T00:49:16.038Z,30.00
2022-09-01T00:51:54.194Z,31.20
2022-09-01T00:54:30.654Z,30.50
2022-09-01T00:57:04.250Z,34.27
2022-09-01T00:59:38.562Z,33.33
2022-09-01T01:02:11.239Z,33.63
2022-09-01T01:04:43.830Z,32.17
2022-09-01T01:07:16.928Z,30.70
2022-09-01T01:09:50.243Z,31.23
2022-09-01T01:12:22.138Z,32.77
2022-09-01T01:14:54.574Z,29.73
2022-09-01T01:17:26.291Z,30.93
2022-09-01T01:20:17.105Z,26.57
2022-09-01T01:23:02.647Z,26.80
2022-09-01T01:25:37.063Z,28.37
2022-09-01T01:28:33.578Z,31.47
2022-09-01T01:31:12.539Z,29.77
2022-09-01T01:33:50.261Z,31.10
2022-09-01T01:36:32.101Z,31.50
2022-09-01T01:39:03.874Z,32.17
2022-09-01T01:41:40.898Z,31.77
2022-09-01T01:44:14.307Z,34.00
2022-09-01T01:46:50.276Z,32.80
2022-09-01T01:49:25.490Z,30.90
2022-09-01T01:51:58.033Z,28.50
2022-09-01T01:54:31.339Z,30.93
2022-09-01T01:57:04.479Z,30.53
2022-09-01T01:59:38.483Z,28.17
2022-09-01T02:02:12.920Z,28.43
2022-09-01T02:04:44.691Z,27.87
2022-09-01T02:07:16.779Z,30.23
2022-09-01T02:09:48.566Z,29.03
2022-09-01T02:12:21.249Z,28.30
2022-09-01T02:14:54.771Z,28.03
2022-09-01T02:17:27.432Z,29.60
2022-09-01T02:19:59.326Z,26.90
2022-09-01T02:22:31.052Z,26.60
2022-09-01T02:25:02.843Z,27.07
2022-09-01T02:27:36.802Z,29.17
2022-09-01T02:30:10.346Z,28.17
2022-09-01T02:32:42.074Z,27.00
2022-09-01T02:35:14.307Z,30.23
2022-09-01T02:37:49.315Z,28.43
2022-09-01T02:40:21.549Z,31.70
2022-09-01T02:42:55.299Z,27.80
2022-09-01T02:45:29.318Z,27.57
2022-09-01T02:48:01.107Z,28.20
2022-09-01T02:50:33.375Z,26.43
2022-09-01T02:53:10.151Z,27.13
2022-09-01T02:55:42.979Z,26.93
2022-09-01T02:58:20.262Z,26.50
2022-09-01T03:00:57.794Z,28.20
2022-09-01T03:03:29.778Z,23.90
2022-09-01T03:06:01.661Z,27.20
2022-09-01T03:08:38.730Z,29.03
2022-09-01T03:11:13.249Z,26.83
2022-09-01T03:13:45.344Z,28.13
2022-09-01T03:16:17.241Z,27.97
2022-09-01T03:18:50.615Z,28.00
2022-09-01T03:21:23.301Z,28.90
2022-09-01T03:23:55.130Z,28.67
2022-09-01T03:26:26.928Z,28.90
2022-09-01T03:28:59.342Z,28.57
2022-09-01T03:31:31.966Z,26.97
2022-09-01T03:34:05.941Z,26.67
2022-09-01T03:36:38.401Z,25.33
2022-09-01T03:39:14.587Z,27.50
2022-09-01T03:41:48.457Z,25.87
2022-09-01T03:44:20.269Z,27.17
2022-09-01T03:46:52.799Z,25.80
2022-09-01T03:49:27.774Z,26.47
2022-09-01T03:52:00.262Z,25.40
2022-09-01T03:54:33.008Z,26.30
2022-09-01T03:57:06.858Z,26.90
2022-09-01T03:59:43.287Z,26.90
2022-09-01T04:02:15.245Z,27.23
2022-09-01T04:04:47.040Z,25.97
2022-09-01T04:07:19.514Z,25.30
2022-09-01T04:09:52.669Z,23.40
2022-09-01T04:12:25.865Z,26.37
2022-09-01T04:14:57.556Z,24.47
2022-09-01T04:17:47.911Z,24.53
2022-09-01T04:20:21.853Z,24.60
2022-09-01T04:22:53.746Z,25.60
2022-09-01T04:25:26.813Z,24.90
2022-09-01T04:27:58.742Z,26.10
2022-09-01T04:30:31.928Z,27.60
2022-09-01T04:33:03.739Z,26.50
2022-09-01T04:35:39.465Z,31.87
2022-09-01T04:38:12.482Z,31.83
2022-09-01T04:40:44.433Z,30.87
2022-09-01T04:43:16.735Z,28.73
2022-09-01T04:45:50.429Z,30.63
2022-09-01T04:48:22.299Z,28.80
2022-09-01T04:50:56.367Z,28.97
2022-09-01T04:53:28.703Z,28.83
2022-09-01T04:56:07.541Z,28.00
2022-09-01T04:58:39.690Z,27.17
2022-09-01T05:01:17.453Z,29.40
2022-09-01T05:03:56.531Z,28.50
2022-09-01T05:06:29.963Z,28.20
2022-09-01T05:09:01.719Z,29.67
2022-09-01T05:11:34.566Z,29.60
2022-09-01T05:14:07.034Z,27.07
2022-09-01T05:16:41.158Z,28.87
2022-09-01T05:19:17.570Z,29.23
2022-09-01T05:21:49.559Z,27.67
2022-09-01T05:24:21.808Z,28.47
2022-09-01T05:26:53.623Z,29.57
2022-09-01T05:29:25.582Z,29.27
2022-09-01T05:31:58.809Z,28.57
2022-09-01T05:34:32.399Z,33.57
2022-09-01T05:37:05.495Z,30.00
2022-09-01T05:39:38.827Z,29.20
2022-09-01T05:42:10.694Z,28.93
2022-09-01T05:44:44.234Z,29.80
2022-09-01T05:47:20.857Z,28.50
2022-09-01T05:49:53.836Z,29.83
2022-09-01T05:52:26.224Z,28.50
2022-09-01T05:54:59.994Z,30.67
2022-09-01T05:57:35.362Z,30.20
2022-09-01T06:00:13.300Z,31.20
2022-09-01T06:02:45.209Z,29.10
2022-09-01T06:05:17.183Z,29.70
2022-09-01T06:07:49.334Z,30.07
2022-09-01T06:10:21.247Z,28.17
2022-09-01T06:12:54.522Z,28.90
2022-09-01T06:15:29.426Z,30.73
2022-09-01T06:18:01.183Z,27.13
2022-09-01T06:20:33.291Z,29.03
2022-09-01T06:23:05.035Z,29.60
2022-09-01T06:25:37.437Z,24.77
2022-09-01T06:28:12.272Z,24.70
2022-09-01T06:30:45.624Z,26.23
2022-09-01T06:33:17.667Z,25.07
2022-09-01T06:35:49.435Z,23.67
2022-09-01T06:38:21.317Z,24.00
2022-09-01T06:41:04.213Z,26.93
2022-09-01T06:43:36.604Z,25.87
2022-09-01T06:46:09.819Z,26.80
2022-09-01T06:48:46.270Z,24.50
2022-09-01T06:51:22.225Z,24.70
2022-09-01T06:53:57.020Z,23.07
2022-09-01T06:56:32.029Z,25.30
2022-09-01T06:59:06.204Z,25.07
2022-09-01T07:01:39.432Z,23.27
2022-09-01T07:04:13.331Z,21.30
2022-09-01T07:09:49.957Z,20.20
2022-09-01T07:12:35.251Z,21.30
2022-09-01T07:17:59.846Z,20.20
2022-09-01T07:21:02.700Z,21.93
2022-09-01T07:23:46.243Z,19.67
2022-09-01T07:26:24.691Z,19.43
2022-09-01T07:29:01.525Z,18.50
2022-09-01T07:34:40.385Z,17.60
2022-09-01T07:38:46.831Z,19.73
2022-09-01T07:45:47.884Z,18.37
2022-09-01T07:54:07.437Z,15.83
2022-09-01T07:56:40.600Z,16.50
2022-09-01T07:59:15.513Z,17.00
2022-09-01T08:01:47.729Z,16.20
2022-09-01T08:04:22.992Z,15.43
2022-09-01T08:06:56.607Z,14.90
2022-09-01T08:09:37.398Z,14.00
2022-09-01T08:12:10.331Z,13.90
2022-09-01T08:14:42.318Z,15.43
2022-09-01T08:17:18.411Z,14.80
2022-09-01T08:20:09.840Z,13.90
2022-09-01T08:22:45.910Z,14.03
2022-09-01T08:25:20.772Z,14.50
2022-09-01T08:28:00.337Z,14.57
2022-09-01T08:30:33.033Z,15.70
2022-09-01T08:33:12.170Z,14.50
2022-09-01T08:35:47.404Z,14.57
2022-09-01T08:38:19.384Z,12.80
2022-09-01T08:40:57.023Z,14.00
2022-09-01T08:44:00.555Z,13.07
2022-09-01T08:46:38.619Z,13.10
2022-09-01T08:49:25.698Z,12.00
2022-09-01T08:52:32.708Z,12.00
2022-09-01T08:55:34.899Z,12.17
2022-09-01T08:58:10.196Z,12.97
2022-09-01T09:00:50.567Z,12.35
2022-09-01T09:03:41.480Z,12.47
2022-09-01T09:06:25.986Z,10.03
2022-09-01T09:09:03.482Z,12.43
2022-09-01T09:12:08.715Z,11.67
2022-09-01T09:15:00.629Z,11.77
2022-09-01T09:17:41.647Z,11.20
2022-09-01T09:20:13.574Z,12.50
2022-09-01T09:22:48.798Z,12.50
2022-09-01T09:25:20.798Z,12.33
2022-09-01T09:28:00.417Z,12.10
2022-09-01T09:30:33.074Z,11.27
2022-09-01T09:33:47.676Z,11.07
2022-09-01T09:36:25.461Z,7.67
2022-09-01T09:39:17.052Z,6.70
2022-09-01T09:42:11.033Z,7.47
2022-09-01T09:48:38.054Z,8.03
2022-09-01T09:55:05.954Z,7.40
2022-09-01T09:58:26.478Z,8.17
2022-09-01T10:01:18.230Z,7.00
2022-09-01T10:03:53.384Z,8.30
2022-09-01T10:06:47.211Z,6.78
2022-09-01T10:09:21.971Z,6.97
2022-09-01T10:11:58.522Z,6.90
2022-09-01T10:14:53.120Z,6.87
2022-09-01T10:17:44.446Z,6.90
2022-09-01T10:20:21.656Z,6.55
2022-09-01T10:22:54.229Z,6.60
2022-09-01T10:25:32.518Z,6.40
2022-09-01T10:28:22.241Z,6.20
2022-09-01T10:30:56.548Z,9.10
2022-09-01T10:33:28.458Z,6.13
2022-09-01T10:36:00.872Z,5.80
2022-09-01T10:38:32.798Z,6.20
2022-09-01T10:41:07.891Z,7.03
2022-09-01T10:43:43.365Z,6.70
2022-09-01T10:46:16.237Z,5.83
2022-09-01T10:48:55.318Z,6.53
2022-09-01T10:51:36.166Z,5.80
2022-09-01T10:54:30.342Z,6.20
2022-09-01T10:57:08.709Z,5.90
2022-09-01T10:59:44.969Z,7.00
2022-09-01T11:02:29.560Z,6.80
2022-09-01T11:05:06.587Z,7.27
2022-09-01T11:08:00.116Z,6.00
2022-09-01T11:10:47.651Z,6.60
2022-09-01T11:13:50.092Z,5.97
2022-09-01T11:16:53.694Z,5.67
2022-09-01T11:19:46.869Z,5.93
2022-09-01T11:22:27.599Z,5.70
2022-09-01T11:25:14.413Z,7.33
2022-09-01T11:27:49.190Z,5.67
2022-09-01T11:30:24.266Z,5.60
2022-09-01T11:33:02.023Z,5.40
2022-09-01T11:35:34.095Z,5.60
2022-09-01T11:38:09.035Z,6.03
2022-09-01T11:40:41.835Z,5.67
2022-09-01T11:43:16.831Z,5.37
2022-09-01T11:46:02.073Z,6.23
2022-09-01T11:48:33.992Z,7.10
2022-09-01T11:51:05.967Z,6.40
2022-09-01T11:53:38.041Z,5.77
2022-09-01T11:56:27.614Z,6.67
2022-09-01T11:58:59.510Z,6.50
2022-09-01T12:01:34.286Z,6.07
2022-09-01T12:04:24.544Z,5.77
2022-09-01T12:06:59.986Z,5.90
2022-09-01T12:09:47.975Z,6.23
2022-09-01T12:12:36.020Z,6.33
2022-09-01T12:15:21.795Z,5.00
2022-09-01T12:18:08.263Z,4.60
2022-09-01T12:20:41.145Z,5.23
2022-09-01T12:23:24.353Z,4.90
2022-09-01T12:26:06.114Z,5.50
2022-09-01T12:28:41.297Z,4.90
2022-09-01T12:31:19.606Z,7.13
2022-09-01T12:33:53.727Z,5.70
2022-09-01T12:36:27.146Z,5.40
2022-09-01T12:39:17.698Z,5.63
2022-09-01T12:42:12.565Z,5.70
2022-09-01T12:44:50.978Z,5.73
2022-09-01T12:47:38.354Z,5.60
2022-09-01T12:50:13.823Z,5.77
2022-09-01T12:52:52.432Z,4.63
2022-09-01T12:58:25.807Z,4.97
2022-09-01T13:00:59.556Z,5.37
2022-09-01T13:03:32.501Z,6.10
2022-09-01T13:06:06.935Z,5.30
2022-09-01T13:08:39.794Z,5.10
2022-09-01T13:11:17.942Z,6.67
2022-09-01T13:13:49.703Z,7.13
2022-09-01T13:16:21.474Z,5.17
2022-09-01T13:21:44.928Z,5.78
2022-09-01T13:24:18.580Z,6.10
2022-09-01T13:29:48.507Z,6.90
2022-09-01T13:32:22.017Z,6.60
2022-09-01T13:34:54.913Z,6.70
2022-09-01T13:37:26.831Z,6.90
2022-09-01T13:39:58.606Z,6.13
2022-09-01T13:42:30.368Z,7.83
2022-09-01T13:45:02.319Z,7.63
2022-09-01T13:47:34.574Z,7.00
2022-09-01T13:50:11.517Z,6.10
2022-09-01T13:52:46.359Z,6.80
2022-09-01T13:55:32.866Z,7.30
2022-09-01T13:58:04.671Z,7.43
2022-09-01T14:00:39.766Z,6.77
2022-09-01T14:03:17.881Z,6.50
2022-09-01T14:05:50.636Z,7.40
2022-09-01T14:08:23.083Z,7.80
2022-09-01T14:10:55.031Z,7.43
2022-09-01T14:13:27.559Z,7.73
2022-09-01T14:16:00.053Z,6.73
2022-09-01T14:18:36.904Z,6.23
2022-09-01T14:21:14.763Z,6.50
2022-09-01T14:23:46.644Z,6.53
2022-09-01T14:26:18.800Z,5.73
2022-09-01T14:28:50.801Z,7.87
2022-09-01T14:31:22.790Z,6.23
2022-09-01T14:33:54.533Z,6.20
2022-09-01T14:36:26.782Z,6.67
2022-09-01T14:38:59.481Z,6.80
2022-09-01T14:41:32.351Z,6.87
2022-09-01T14:44:04.231Z,7.10
2022-09-01T14:46:37.068Z,7.47
2022-09-01T14:49:09.541Z,6.37
2022-09-01T14:54:34.680Z,5.60
2022-09-01T14:59:59.680Z,6.80
2022-09-01T15:02:33.250Z,7.10
2022-09-01T15:05:06.508Z,7.17
2022-09-01T15:07:39.035Z,6.30
2022-09-01T15:10:15.914Z,7.23
2022-09-01T15:12:59.794Z,6.63
2022-09-01T15:15:32.225Z,7.03
2022-09-01T15:18:04.111Z,6.70
2022-09-01T15:20:45.915Z,6.00
2022-09-01T15:23:20.626Z,7.47
2022-09-01T15:25:55.827Z,6.40
2022-09-01T15:28:27.605Z,6.13
2022-09-01T15:31:00.068Z,6.53
2022-09-01T15:33:31.840Z,5.73
2022-09-01T15:36:03.831Z,5.00
2022-09-01T15:38:35.900Z,5.40
2022-09-01T15:41:07.689Z,5.83
2022-09-01T15:43:39.514Z,5.50
2022-09-01T15:46:12.118Z,5.13
2022-09-01T15:48:46.810Z,6.37
2022-09-01T15:51:27.859Z,5.90
2022-09-01T15:54:07.718Z,7.00
2022-09-01T15:56:40.085Z,6.20
2022-09-01T15:59:12.371Z,5.43
2022-09-01T16:01:45.971Z,6.77
2022-09-01T16:04:20.829Z,5.90
2022-09-01T16:06:56.482Z,6.17
2022-09-01T16:09:29.113Z,5.90
2022-09-01T16:12:00.917Z,6.30
2022-09-01T16:14:32.751Z,6.37
2022-09-01T16:17:20.970Z,6.10
2022-09-01T16:20:19.294Z,5.50
2022-09-01T16:22:56.462Z,6.70
2022-09-01T16:25:31.943Z,6.40
2022-09-01T16:28:22.251Z,6.53
2022-09-01T16:31:02.988Z,6.07
2022-09-01T16:36:24.825Z,6.53
2022-09-01T16:39:12.662Z,5.83
2022-09-01T16:41:56.791Z,6.10
2022-09-01T16:44:49.851Z,6.60
2022-09-01T16:47:25.504Z,6.60
2022-09-01T16:50:09.631Z,6.90
2022-09-01T16:52:56.159Z,6.77
2022-09-01T16:56:01.995Z,7.17
2022-09-01T16:58:44.791Z,6.32
2022-09-01T17:01:37.058Z,7.00
2022-09-01T17:04:33.491Z,6.80
2022-09-01T17:07:08.006Z,6.33
2022-09-01T17:10:02.717Z,5.90
2022-09-01T17:12:51.031Z,7.07
2022-09-01T17:15:38.089Z,6.90
2022-09-01T17:18:22.356Z,6.70
2022-09-01T17:21:02.216Z,7.30
2022-09-01T17:23:40.873Z,6.70
2022-09-01T17:26:23.542Z,7.80
2022-09-01T17:28:58.378Z,6.77
2022-09-01T17:32:13.987Z,7.40
2022-09-01T17:35:24.018Z,8.07
2022-09-01T17:38:19.638Z,7.43
2022-09-01T17:41:13.338Z,8.20
2022-09-01T17:44:22.599Z,6.80
2022-09-01T17:47:13.683Z,7.60
2022-09-01T17:50:17.980Z,7.00
2022-09-01T17:53:12.661Z,7.50
2022-09-01T17:56:22.083Z,7.30
2022-09-01T17:59:10.507Z,7.30
2022-09-01T18:02:12.875Z,6.60
2022-09-01T18:04:56.151Z,6.40
2022-09-01T18:07:52.806Z,6.73
2022-09-01T18:10:42.347Z,6.60
2022-09-01T18:13:52.244Z,6.53
2022-09-01T18:16:39.075Z,7.57
2022-09-01T18:19:21.095Z,6.77
2022-09-01T18:22:01.274Z,6.60
2022-09-01T18:24:45.796Z,6.97
2022-09-01T18:27:17.816Z,7.70
2022-09-01T18:29:52.966Z,7.40
2022-09-01T18:32:38.374Z,6.67
2022-09-01T18:35:57.637Z,7.57
2022-09-01T18:38:54.801Z,7.30
2022-09-01T18:41:58.129Z,7.00
2022-09-01T18:44:56.267Z,7.40
2022-09-01T18:47:37.682Z,7.17
2022-09-01T18:50:28.015Z,7.57
2022-09-01T18:53:05.754Z,7.57
2022-09-01T18:56:03.295Z,7.10
2022-09-01T18:58:42.639Z,8.23
2022-09-01T19:01:22.983Z,7.80
2022-09-01T19:04:10.033Z,8.40
2022-09-01T19:07:06.879Z,8.33
2022-09-01T19:09:45.346Z,8.17
2022-09-01T19:12:39.390Z,9.50
2022-09-01T19:15:25.652Z,7.50
2022-09-01T19:18:14.737Z,9.27
2022-09-01T19:21:04.629Z,7.90
2022-09-01T19:23:54.434Z,8.83
2022-09-01T19:26:27.937Z,8.80
2022-09-01T19:29:10.971Z,8.80
2022-09-01T19:31:49.984Z,8.07
2022-09-01T19:35:11.830Z,9.37
2022-09-01T19:37:47.916Z,9.30
2022-09-01T19:40:27.868Z,9.50
2022-09-01T19:43:10.649Z,9.80
2022-09-01T19:45:56.093Z,8.60
2022-09-01T19:49:00.410Z,9.40
2022-09-01T19:51:44.739Z,8.40
2022-09-01T19:54:27.742Z,9.13
2022-09-01T19:57:13.434Z,7.83
2022-09-01T20:00:11.035Z,9.07
2022-09-01T20:03:34.496Z,8.70
2022-09-01T20:06:25.349Z,8.60
2022-09-01T20:09:29.185Z,9.00
2022-09-01T20:12:22.179Z,9.63
2022-09-01T20:15:19.141Z,9.67
2022-09-01T20:18:00.114Z,8.50
2022-09-01T20:21:04.648Z,9.20
2022-09-01T20:24:04.235Z,9.50
2022-09-01T20:26:48.902Z,8.33
2022-09-01T20:29:26.675Z,9.03
2022-09-01T20:32:01.510Z,8.40
2022-09-01T20:34:42.055Z,9.70
2022-09-01T20:37:18.135Z,8.50
2022-09-01T20:40:04.595Z,8.40
2022-09-01T20:42:45.618Z,9.03
2022-09-01T20:45:21.739Z,8.80
2022-09-01T20:47:58.154Z,9.63
2022-09-01T20:50:50.488Z,8.93
2022-09-01T20:53:31.206Z,9.73
2022-09-01T20:56:10.418Z,9.17
2022-09-01T20:58:56.036Z,9.53
2022-09-01T21:01:57.061Z,11.37
2022-09-01T21:04:47.703Z,9.30
2022-09-01T21:07:29.258Z,9.90
2022-09-01T21:10:12.262Z,8.90
2022-09-01T21:12:50.826Z,8.73
2022-09-01T21:15:27.531Z,9.33
2022-09-01T21:18:08.118Z,10.00
2022-09-01T21:21:10.016Z,10.33
2022-09-01T21:23:41.766Z,9.10
2022-09-01T21:26:14.027Z,10.10
2022-09-01T21:28:50.102Z,11.03
2022-09-01T21:31:24.256Z,9.53
2022-09-01T21:33:56.132Z,9.20
2022-09-01T21:36:27.975Z,9.60
2022-09-01T21:38:59.680Z,9.93
2022-09-01T21:41:31.727Z,10.00
2022-09-01T21:44:03.999Z,10.13
2022-09-01T21:46:36.085Z,9.87
2022-09-01T21:49:07.941Z,9.70
2022-09-01T21:51:43.130Z,10.10
2022-09-01T21:54:14.962Z,9.60
2022-09-01T21:56:47.354Z,10.63
2022-09-01T21:59:19.315Z,10.10
2022-09-01T22:01:51.181Z,9.87
2022-09-01T22:04:25.975Z,9.43
2022-09-01T22:06:57.762Z,9.47
2022-09-01T22:09:30.764Z,9.03
2022-09-01T22:12:02.802Z,9.53
2022-09-01T22:14:34.622Z,10.50
2022-09-01T22:17:06.878Z,9.50
2022-09-01T22:19:38.790Z,9.13
2022-09-01T22:22:10.624Z,10.57
2022-09-01T22:24:42.563Z,9.50
2022-09-01T22:27:14.540Z,9.80
2022-09-01T22:29:46.293Z,10.23
2022-09-01T22:32:18.954Z,9.47
2022-09-01T22:34:51.153Z,9.87
2022-09-01T22:37:23.168Z,9.37
2022-09-01T22:39:54.912Z,9.90
2022-09-01T22:42:26.778Z,9.93
2022-09-01T22:44:58.682Z,9.90
2022-09-01T22:47:30.511Z,9.80
2022-09-01T22:50:09.022Z,9.50
2022-09-01T22:52:40.848Z,8.87
2022-09-01T22:55:13.641Z,10.40
2022-09-01T22:57:45.379Z,10.10
2022-09-01T23:00:18.092Z,9.70
2022-09-01T23:02:49.869Z,9.90
2022-09-01T23:05:23.250Z,9.50
2022-09-01T23:07:56.550Z,9.80
2022-09-01T23:10:28.687Z,10.47
2022-09-01T23:13:00.571Z,9.40
2022-09-01T23:15:32.615Z,9.60
2022-09-01T23:18:04.527Z,9.37
2022-09-01T23:20:36.363Z,8.83
2022-09-01T23:23:08.331Z,9.27
2022-09-01T23:25:42.547Z,9.27
2022-09-01T23:28:17.919Z,9.30
2022-09-01T23:30:51.748Z,9.50
2022-09-01T23:33:25.143Z,9.30
2022-09-01T23:35:57.247Z,9.93
2022-09-01T23:38:29.228Z,9.37
2022-09-01T23:41:06.277Z,8.80
2022-09-01T23:43:38.526Z,8.60
2022-09-01T23:46:18.209Z,8.90
2022-09-01T23:48:50.246Z,8.73
2022-09-01T23:51:23.707Z,8.93
2022-09-01T23:53:55.504Z,8.97
2022-09-01T23:56:29.457Z,9.20
2022-09-01T23:59:01.913Z,8.57
